createdAt,value
2018-05-31T00:00:28.747Z,22.44
2018-05-31T00:01:09.305Z,22.39
2018-05-31T00:01:49.886Z,22.43
2018-05-31T00:02:30.450Z,22.45
2018-05-31T00:03:11.017Z,22.36
2018-05-31T00:03:51.603Z,22.41
2018-05-31T00:04:32.186Z,22.33
2018-05-31T00:05:12.761Z,22.33
2018-05-31T00:05:53.338Z,22.33
2018-05-31T00:06:33.900Z,22.28
2018-05-31T00:07:14.458Z,22.3
2018-05-31T00:07:55.012Z,22.35
2018-05-31T00:08:35.590Z,22.32
2018-05-31T00:09:16.149Z,22.41
2018-05-31T00:09:56.719Z,22.32
2018-05-31T00:10:37.288Z,22.33
2018-05-31T00:11:20.674Z,22.36
2018-05-31T00:12:01.272Z,22.33
2018-05-31T00:12:41.807Z,22.33
2018-05-31T00:13:22.387Z,22.25
2018-05-31T00:14:02.930Z,22.23
2018-05-31T00:14:43.509Z,22.26
2018-05-31T00:15:24.060Z,22.2
2018-05-31T00:16:04.667Z,22.17
2018-05-31T00:16:45.223Z,22.18
2018-05-31T00:17:25.796Z,22.15
2018-05-31T00:18:06.361Z,22.11
2018-05-31T00:18:46.928Z,22.11
2018-05-31T00:19:27.485Z,22.1
2018-05-31T00:20:08.041Z,22.11
2018-05-31T00:20:48.625Z,22.04
2018-05-31T00:21:29.192Z,22.1
2018-05-31T00:22:09.747Z,22.04
2018-05-31T00:22:50.304Z,22.1
2018-05-31T00:23:30.863Z,22.02
2018-05-31T00:24:11.533Z,22.04
2018-05-31T00:24:52.104Z,22.02
2018-05-31T00:25:32.671Z,22.08
2018-05-31T00:26:13.226Z,22.11
2018-05-31T00:26:53.793Z,22.04
2018-05-31T00:27:34.375Z,22.14
2018-05-31T00:28:14.935Z,22.11
2018-05-31T00:28:55.513Z,22.04
2018-05-31T00:29:36.084Z,22.04
2018-05-31T00:30:16.646Z,22.06
2018-05-31T00:30:57.230Z,22.06
2018-05-31T00:31:37.816Z,22
2018-05-31T00:32:18.383Z,22.02
2018-05-31T00:32:58.938Z,22.08
2018-05-31T00:33:39.504Z,22.02
2018-05-31T00:34:20.060Z,22.17
2018-05-31T00:35:00.621Z,22.11
2018-05-31T00:35:41.209Z,22.02
2018-05-31T00:36:21.811Z,22.04
2018-05-31T00:37:02.376Z,22.06
2018-05-31T00:37:42.918Z,22
2018-05-31T00:38:23.462Z,22.04
2018-05-31T00:39:04.030Z,22.13
2018-05-31T00:39:44.584Z,22.02
2018-05-31T00:40:25.157Z,22.08
2018-05-31T00:41:05.727Z,22.07
2018-05-31T00:41:46.310Z,22.06
2018-05-31T00:42:26.870Z,22
2018-05-31T00:43:07.435Z,22.06
2018-05-31T00:43:47.985Z,22.04
2018-05-31T00:44:28.535Z,22.02
2018-05-31T00:45:09.072Z,21.99
2018-05-31T00:45:49.636Z,21.98
2018-05-31T00:46:30.196Z,21.96
2018-05-31T00:47:10.821Z,21.95
2018-05-31T00:47:51.396Z,21.93
2018-05-31T00:48:31.950Z,21.91
2018-05-31T00:49:12.499Z,21.88
2018-05-31T00:49:53.072Z,21.92
2018-05-31T00:50:33.644Z,21.93
2018-05-31T00:51:14.218Z,21.89
2018-05-31T00:51:54.774Z,21.96
2018-05-31T00:52:35.339Z,21.93
2018-05-31T00:53:15.899Z,21.88
2018-05-31T00:53:56.493Z,21.88
2018-05-31T00:54:37.064Z,21.93
2018-05-31T00:55:17.641Z,21.88
2018-05-31T00:55:58.205Z,21.85
2018-05-31T00:56:38.772Z,21.83
2018-05-31T00:57:19.352Z,21.83
2018-05-31T00:57:59.901Z,21.91
2018-05-31T00:58:40.471Z,21.89
2018-05-31T00:59:21.034Z,21.77
2018-05-31T01:00:01.596Z,21.79
2018-05-31T01:00:42.152Z,21.83
2018-05-31T01:01:22.703Z,21.85
2018-05-31T01:02:03.269Z,21.79
2018-05-31T01:02:43.819Z,21.76
2018-05-31T01:03:24.378Z,21.83
2018-05-31T01:04:04.936Z,21.82
2018-05-31T01:04:45.514Z,21.83
2018-05-31T01:05:26.085Z,21.79
2018-05-31T01:06:06.641Z,21.79
2018-05-31T01:06:47.205Z,21.73
2018-05-31T01:07:27.755Z,21.89
2018-05-31T01:08:08.299Z,21.79
2018-05-31T01:08:48.868Z,21.92
2018-05-31T01:09:29.427Z,21.8
2018-05-31T01:10:10.006Z,21.77
2018-05-31T01:10:50.565Z,21.77
2018-05-31T01:11:31.112Z,21.79
2018-05-31T01:12:11.675Z,21.75
2018-05-31T01:12:52.257Z,21.76
2018-05-31T01:13:32.799Z,21.77
2018-05-31T01:14:13.359Z,21.82
2018-05-31T01:14:53.919Z,21.72
2018-05-31T01:15:34.462Z,21.77
2018-05-31T01:16:15.008Z,21.83
2018-05-31T01:16:55.564Z,21.75
2018-05-31T01:17:36.105Z,21.61
2018-05-31T01:18:16.685Z,21.77
2018-05-31T01:18:57.249Z,21.75
2018-05-31T01:19:37.845Z,21.79
2018-05-31T01:20:18.424Z,21.75
2018-05-31T01:20:58.990Z,21.67
2018-05-31T01:21:39.572Z,21.79
2018-05-31T01:22:20.141Z,21.69
2018-05-31T01:23:00.695Z,21.76
2018-05-31T01:23:41.256Z,21.72
2018-05-31T01:24:21.808Z,21.82
2018-05-31T01:25:02.375Z,21.79
2018-05-31T01:25:42.936Z,21.73
2018-05-31T01:26:23.494Z,21.75
2018-05-31T01:27:04.068Z,21.77
2018-05-31T01:27:44.628Z,21.77
2018-05-31T01:28:25.229Z,21.76
2018-05-31T01:29:05.784Z,21.66
2018-05-31T01:29:46.353Z,21.77
2018-05-31T01:30:26.904Z,21.72
2018-05-31T01:31:07.477Z,21.73
2018-05-31T01:31:48.056Z,21.72
2018-05-31T01:32:28.629Z,21.69
2018-05-31T01:33:09.209Z,21.58
2018-05-31T01:33:49.780Z,21.7
2018-05-31T01:34:30.335Z,21.69
2018-05-31T01:35:10.894Z,21.6
2018-05-31T01:35:51.465Z,21.77
2018-05-31T01:36:32.029Z,21.69
2018-05-31T01:37:12.607Z,21.64
2018-05-31T01:37:53.180Z,21.61
2018-05-31T01:38:33.802Z,21.75
2018-05-31T01:39:14.326Z,21.64
2018-05-31T01:39:54.903Z,21.61
2018-05-31T01:40:35.458Z,21.54
2018-05-31T01:41:16.020Z,21.67
2018-05-31T01:41:56.583Z,21.67
2018-05-31T01:42:37.136Z,21.7
2018-05-31T01:43:17.696Z,21.62
2018-05-31T01:43:58.262Z,21.6
2018-05-31T01:44:38.816Z,21.6
2018-05-31T01:45:19.371Z,21.52
2018-05-31T01:45:59.938Z,21.6
2018-05-31T01:46:40.498Z,21.52
2018-05-31T01:47:21.063Z,21.54
2018-05-31T01:48:01.640Z,21.54
2018-05-31T01:48:42.201Z,21.51
2018-05-31T01:49:22.761Z,21.5
2018-05-31T01:50:03.329Z,21.46
2018-05-31T01:50:43.893Z,21.5
2018-05-31T01:51:24.467Z,21.6
2018-05-31T01:52:05.015Z,21.54
2018-05-31T01:52:45.611Z,21.51
2018-05-31T01:53:26.168Z,21.46
2018-05-31T01:54:06.753Z,21.51
2018-05-31T01:54:47.310Z,21.58
2018-05-31T01:55:27.891Z,21.5
2018-05-31T01:56:08.457Z,21.5
2018-05-31T01:56:49.018Z,21.43
2018-05-31T01:57:29.591Z,21.42
2018-05-31T01:58:10.164Z,21.48
2018-05-31T01:58:50.742Z,21.48
2018-05-31T01:59:31.276Z,21.54
2018-05-31T02:00:11.856Z,21.5
2018-05-31T02:00:52.420Z,21.48
2018-05-31T02:01:32.997Z,21.51
2018-05-31T02:02:13.561Z,21.48
2018-05-31T02:02:54.117Z,21.48
2018-05-31T02:03:34.676Z,21.54
2018-05-31T02:04:15.249Z,21.54
2018-05-31T02:04:55.815Z,21.45
2018-05-31T02:05:36.366Z,21.4
2018-05-31T02:06:16.964Z,21.46
2018-05-31T02:06:57.522Z,21.42
2018-05-31T02:07:38.101Z,21.62
2018-05-31T02:08:18.674Z,21.52
2018-05-31T02:08:59.262Z,21.43
2018-05-31T02:09:39.820Z,21.46
2018-05-31T02:10:20.414Z,21.48
2018-05-31T02:11:00.940Z,21.54
2018-05-31T02:11:41.511Z,21.57
2018-05-31T02:12:22.059Z,21.51
2018-05-31T02:13:02.638Z,21.45
2018-05-31T02:13:43.211Z,21.55
2018-05-31T02:14:23.767Z,21.51
2018-05-31T02:15:04.323Z,21.48
2018-05-31T02:15:44.894Z,21.46
2018-05-31T02:16:25.465Z,21.46
2018-05-31T02:17:06.016Z,21.51
2018-05-31T02:17:46.573Z,21.61
2018-05-31T02:18:27.131Z,21.43
2018-05-31T02:19:07.688Z,21.45
2018-05-31T02:19:48.267Z,21.5
2018-05-31T02:20:28.833Z,21.6
2018-05-31T02:21:09.404Z,21.52
2018-05-31T02:21:49.965Z,21.5
2018-05-31T02:22:30.539Z,21.48
2018-05-31T02:23:11.114Z,21.52
2018-05-31T02:23:51.689Z,21.5
2018-05-31T02:24:32.248Z,21.55
2018-05-31T02:25:12.806Z,21.5
2018-05-31T02:25:53.375Z,21.57
2018-05-31T02:26:33.949Z,21.48
2018-05-31T02:27:14.532Z,21.5
2018-05-31T02:27:55.101Z,21.51
2018-05-31T02:28:35.662Z,21.58
2018-05-31T02:29:16.219Z,21.46
2018-05-31T02:29:56.784Z,21.48
2018-05-31T02:30:37.332Z,21.48
2018-05-31T02:31:17.895Z,21.48
2018-05-31T02:31:58.480Z,21.46
2018-05-31T02:32:39.045Z,21.54
2018-05-31T02:33:19.586Z,21.46
2018-05-31T02:34:00.152Z,21.57
2018-05-31T02:34:40.712Z,21.42
2018-05-31T02:35:21.281Z,21.5
2018-05-31T02:36:01.825Z,21.52
2018-05-31T02:36:42.396Z,21.54
2018-05-31T02:37:22.979Z,21.58
2018-05-31T02:38:03.543Z,21.54
2018-05-31T02:38:44.129Z,21.58
2018-05-31T02:39:24.680Z,21.48
2018-05-31T02:40:05.266Z,21.43
2018-05-31T02:40:45.833Z,21.51
2018-05-31T02:41:26.412Z,21.46
2018-05-31T02:42:06.988Z,21.48
2018-05-31T02:42:47.548Z,21.45
2018-05-31T02:43:28.109Z,21.48
2018-05-31T02:44:08.700Z,21.43
2018-05-31T02:44:49.273Z,21.5
2018-05-31T02:45:29.835Z,21.5
2018-05-31T02:46:10.403Z,21.52
2018-05-31T02:46:50.970Z,21.46
2018-05-31T02:47:31.535Z,21.5
2018-05-31T02:48:12.102Z,21.48
2018-05-31T02:48:52.651Z,21.42
2018-05-31T02:49:33.227Z,21.51
2018-05-31T02:50:13.801Z,21.52
2018-05-31T02:50:54.347Z,21.4
2018-05-31T02:51:34.903Z,21.45
2018-05-31T02:52:15.501Z,21.4
2018-05-31T02:52:56.077Z,21.3
2018-05-31T02:53:36.634Z,21.45
2018-05-31T02:54:17.226Z,21.33
2018-05-31T02:54:57.776Z,21.4
2018-05-31T02:55:38.339Z,21.39
2018-05-31T02:56:18.893Z,21.45
2018-05-31T02:56:59.457Z,21.43
2018-05-31T02:57:40.025Z,21.43
2018-05-31T02:58:20.611Z,21.5
2018-05-31T02:59:01.173Z,21.43
2018-05-31T02:59:41.736Z,21.46
2018-05-31T03:00:22.320Z,21.45
2018-05-31T03:01:02.890Z,21.46
2018-05-31T03:01:43.460Z,21.39
2018-05-31T03:02:24.025Z,21.43
2018-05-31T03:03:04.605Z,21.4
2018-05-31T03:03:45.184Z,21.42
2018-05-31T03:04:25.755Z,21.37
2018-05-31T03:05:06.340Z,21.42
2018-05-31T03:05:46.891Z,21.43
2018-05-31T03:06:27.465Z,21.37
2018-05-31T03:07:08.042Z,21.37
2018-05-31T03:07:48.640Z,21.46
2018-05-31T03:08:29.170Z,21.48
2018-05-31T03:09:09.731Z,21.48
2018-05-31T03:09:50.286Z,21.42
2018-05-31T03:10:30.868Z,21.48
2018-05-31T03:11:11.439Z,21.42
2018-05-31T03:11:51.988Z,21.37
2018-05-31T03:12:32.557Z,21.4
2018-05-31T03:13:13.113Z,21.37
2018-05-31T03:13:53.662Z,21.35
2018-05-31T03:14:34.220Z,21.39
2018-05-31T03:15:14.773Z,21.5
2018-05-31T03:15:55.366Z,21.5
2018-05-31T03:16:35.922Z,21.5
2018-05-31T03:17:16.468Z,21.36
2018-05-31T03:17:57.029Z,21.37
2018-05-31T03:18:37.591Z,21.35
2018-05-31T03:19:18.164Z,21.35
2018-05-31T03:19:58.722Z,21.45
2018-05-31T03:20:39.288Z,21.33
2018-05-31T03:21:19.838Z,21.43
2018-05-31T03:22:00.392Z,21.36
2018-05-31T03:22:40.995Z,21.42
2018-05-31T03:23:21.519Z,21.4
2018-05-31T03:24:02.065Z,21.4
2018-05-31T03:24:42.638Z,21.39
2018-05-31T03:25:23.170Z,21.36
2018-05-31T03:26:03.721Z,21.45
2018-05-31T03:26:44.270Z,21.4
2018-05-31T03:27:24.825Z,21.48
2018-05-31T03:28:05.379Z,21.43
2018-05-31T03:28:45.948Z,21.32
2018-05-31T03:29:26.564Z,21.4
2018-05-31T03:30:07.107Z,21.33
2018-05-31T03:30:47.661Z,21.37
2018-05-31T03:31:28.205Z,21.39
2018-05-31T03:32:08.788Z,21.37
2018-05-31T03:32:49.344Z,21.32
2018-05-31T03:33:29.892Z,21.3
2018-05-31T03:34:10.439Z,21.33
2018-05-31T03:34:50.982Z,21.3
2018-05-31T03:35:31.543Z,21.3
2018-05-31T03:36:12.097Z,21.27
2018-05-31T03:36:52.656Z,21.32
2018-05-31T03:37:33.226Z,21.22
2018-05-31T03:38:13.769Z,21.35
2018-05-31T03:38:54.316Z,21.24
2018-05-31T03:39:34.884Z,21.22
2018-05-31T03:40:15.442Z,21.29
2018-05-31T03:40:56.021Z,21.27
2018-05-31T03:41:36.571Z,21.32
2018-05-31T03:42:17.125Z,21.2
2018-05-31T03:42:57.700Z,21.18
2018-05-31T03:43:38.255Z,21.2
2018-05-31T03:44:18.790Z,21.18
2018-05-31T03:44:59.317Z,21.17
2018-05-31T03:45:39.905Z,21.21
2018-05-31T03:46:20.445Z,21.14
2018-05-31T03:47:01.003Z,21.17
2018-05-31T03:47:41.592Z,21.25
2018-05-31T03:48:22.142Z,21.25
2018-05-31T03:49:02.698Z,21.21
2018-05-31T03:49:43.243Z,21.17
2018-05-31T03:50:23.844Z,21.2
2018-05-31T03:51:04.404Z,21.15
2018-05-31T03:51:44.956Z,21.27
2018-05-31T03:52:25.497Z,21.3
2018-05-31T03:53:06.040Z,21.18
2018-05-31T03:53:46.711Z,21.21
2018-05-31T03:54:27.294Z,21.2
2018-05-31T03:55:08.013Z,21.15
2018-05-31T03:55:48.586Z,21.2
2018-05-31T03:56:29.133Z,21.21
2018-05-31T03:57:09.690Z,21.29
2018-05-31T03:57:50.243Z,21.21
2018-05-31T03:58:30.801Z,21.15
2018-05-31T03:59:11.348Z,21.24
2018-05-31T03:59:51.919Z,21.24
2018-05-31T04:00:32.508Z,21.27
2018-05-31T04:01:13.045Z,21.22
2018-05-31T04:01:53.591Z,21.24
2018-05-31T04:02:34.155Z,21.21
2018-05-31T04:03:14.699Z,21.29
2018-05-31T04:03:55.308Z,21.32
2018-05-31T04:04:35.865Z,21.33
2018-05-31T04:05:16.411Z,21.3
2018-05-31T04:05:56.970Z,21.29
2018-05-31T04:06:37.532Z,21.18
2018-05-31T04:07:18.088Z,21.24
2018-05-31T04:07:58.658Z,21.17
2018-05-31T04:08:39.244Z,21.24
2018-05-31T04:09:19.806Z,21.18
2018-05-31T04:10:00.358Z,21.2
2018-05-31T04:10:40.966Z,21.2
2018-05-31T04:11:21.565Z,21.17
2018-05-31T04:12:02.155Z,21.21
2018-05-31T04:12:42.697Z,21.17
2018-05-31T04:13:23.294Z,21.24
2018-05-31T04:14:03.848Z,21.21
2018-05-31T04:14:44.388Z,21.24
2018-05-31T04:15:24.960Z,21.27
2018-05-31T04:16:05.508Z,21.21
2018-05-31T04:16:46.074Z,21.3
2018-05-31T04:17:26.638Z,21.27
2018-05-31T04:18:07.195Z,21.3
2018-05-31T04:18:47.785Z,21.42
2018-05-31T04:19:28.329Z,21.42
2018-05-31T04:20:08.906Z,21.46
2018-05-31T04:20:49.595Z,21.36
2018-05-31T04:21:30.152Z,21.39
2018-05-31T04:22:10.735Z,21.42
2018-05-31T04:22:51.301Z,21.48
2018-05-31T04:23:31.904Z,21.5
2018-05-31T04:24:12.442Z,21.51
2018-05-31T04:24:52.999Z,21.69
2018-05-31T04:25:33.569Z,21.5
2018-05-31T04:26:14.098Z,21.72
2018-05-31T04:26:54.656Z,21.66
2018-05-31T04:27:35.211Z,21.66
2018-05-31T04:28:15.785Z,21.6
2018-05-31T04:28:56.333Z,21.69
2018-05-31T04:29:36.887Z,21.64
2018-05-31T04:30:17.436Z,21.62
2018-05-31T04:30:58.045Z,21.72
2018-05-31T04:31:38.595Z,21.66
2018-05-31T04:32:19.151Z,21.57
2018-05-31T04:32:59.732Z,21.66
2018-05-31T04:33:40.388Z,21.72
2018-05-31T04:34:20.907Z,21.72
2018-05-31T04:35:01.468Z,21.64
2018-05-31T04:35:42.017Z,21.67
2018-05-31T04:36:22.569Z,21.7
2018-05-31T04:37:03.116Z,21.62
2018-05-31T04:37:43.652Z,21.58
2018-05-31T04:38:24.221Z,21.67
2018-05-31T04:39:04.774Z,21.58
2018-05-31T04:39:45.290Z,21.64
2018-05-31T04:40:25.900Z,21.66
2018-05-31T04:41:06.482Z,21.64
2018-05-31T04:41:47.051Z,21.64
2018-05-31T04:42:27.684Z,21.7
2018-05-31T04:43:08.161Z,21.83
2018-05-31T04:43:48.719Z,21.76
2018-05-31T04:44:29.271Z,21.79
2018-05-31T04:45:09.837Z,21.82
2018-05-31T04:45:50.612Z,21.79
2018-05-31T04:46:31.150Z,21.85
2018-05-31T04:47:12.016Z,21.82
2018-05-31T04:47:52.587Z,21.8
2018-05-31T04:48:33.140Z,21.79
2018-05-31T04:49:13.726Z,21.89
2018-05-31T04:49:54.327Z,21.77
2018-05-31T04:50:34.910Z,21.89
2018-05-31T04:51:15.474Z,21.85
2018-05-31T04:51:56.030Z,21.92
2018-05-31T04:52:36.576Z,21.88
2018-05-31T04:53:17.151Z,21.93
2018-05-31T04:53:57.737Z,21.85
2018-05-31T04:54:38.284Z,21.88
2018-05-31T04:55:18.828Z,21.92
2018-05-31T04:55:59.391Z,21.92
2018-05-31T04:56:39.970Z,21.93
2018-05-31T04:57:20.517Z,21.93
2018-05-31T04:58:01.065Z,21.88
2018-05-31T04:58:41.630Z,21.92
2018-05-31T04:59:22.207Z,21.93
2018-05-31T05:00:02.730Z,21.95
2018-05-31T05:00:43.278Z,22.02
2018-05-31T05:01:23.836Z,22.07
2018-05-31T05:02:04.410Z,22.1
2018-05-31T05:02:44.980Z,22.07
2018-05-31T05:03:25.544Z,22.15
2018-05-31T05:04:06.128Z,22.23
2018-05-31T05:04:46.715Z,22.23
2018-05-31T05:05:27.279Z,22.22
2018-05-31T05:06:07.853Z,22.2
2018-05-31T05:06:48.412Z,22.22
2018-05-31T05:07:29.018Z,22.17
2018-05-31T05:08:09.576Z,22.25
2018-05-31T05:08:50.178Z,22.23
2018-05-31T05:09:30.750Z,22.2
2018-05-31T05:10:11.331Z,22.22
2018-05-31T05:10:51.896Z,22.29
2018-05-31T05:11:32.464Z,22.22
2018-05-31T05:12:13.057Z,22.33
2018-05-31T05:12:53.629Z,22.38
2018-05-31T05:13:34.202Z,22.44
2018-05-31T05:14:14.730Z,22.35
2018-05-31T05:14:55.280Z,22.28
2018-05-31T05:15:35.848Z,22.39
2018-05-31T05:16:16.456Z,22.39
2018-05-31T05:16:57.045Z,22.47
2018-05-31T05:17:37.608Z,22.44
2018-05-31T05:18:18.175Z,22.43
2018-05-31T05:18:58.746Z,22.36
2018-05-31T05:19:39.337Z,22.45
2018-05-31T05:20:19.883Z,22.44
2018-05-31T05:21:00.433Z,22.47
2018-05-31T05:21:41.006Z,22.55
2018-05-31T05:22:21.592Z,22.54
2018-05-31T05:23:02.163Z,22.62
2018-05-31T05:23:42.717Z,22.66
2018-05-31T05:24:23.280Z,22.68
2018-05-31T05:25:03.833Z,22.69
2018-05-31T05:25:44.383Z,22.78
2018-05-31T05:26:24.996Z,22.84
2018-05-31T05:27:05.498Z,22.84
2018-05-31T05:27:46.044Z,22.9
2018-05-31T05:28:26.583Z,22.85
2018-05-31T05:29:07.146Z,22.91
2018-05-31T05:29:47.705Z,23.02
2018-05-31T05:30:28.268Z,22.96
2018-05-31T05:31:08.811Z,22.98
2018-05-31T05:31:49.435Z,22.99
2018-05-31T05:32:30.045Z,23.06
2018-05-31T05:33:10.612Z,23.06
2018-05-31T05:33:51.214Z,23.13
2018-05-31T05:34:31.782Z,23.15
2018-05-31T05:35:12.339Z,23.18
2018-05-31T05:35:53.033Z,23.27
2018-05-31T05:36:33.595Z,23.32
2018-05-31T05:37:14.168Z,23.34
2018-05-31T05:37:54.713Z,23.34
2018-05-31T05:38:35.247Z,23.43
2018-05-31T05:39:15.843Z,23.46
2018-05-31T05:39:56.387Z,23.48
2018-05-31T05:40:37.030Z,23.58
2018-05-31T05:41:17.605Z,23.56
2018-05-31T05:41:58.178Z,23.61
2018-05-31T05:42:38.746Z,23.73
2018-05-31T05:43:19.299Z,23.86
2018-05-31T05:43:59.890Z,23.84
2018-05-31T05:44:40.447Z,23.91
2018-05-31T05:45:21.023Z,23.99
2018-05-31T05:46:01.619Z,24.13
2018-05-31T05:46:42.194Z,24.18
2018-05-31T05:47:22.780Z,24.17
2018-05-31T05:48:03.355Z,24.17
2018-05-31T05:48:44.019Z,24.23
2018-05-31T05:49:24.591Z,24.3
2018-05-31T05:50:05.170Z,24.42
2018-05-31T05:50:45.702Z,24.39
2018-05-31T05:51:26.260Z,24.42
2018-05-31T05:52:06.824Z,24.51
2018-05-31T05:52:47.368Z,24.54
2018-05-31T05:53:27.914Z,24.58
2018-05-31T05:54:08.510Z,24.61
2018-05-31T05:54:49.091Z,24.57
2018-05-31T05:55:29.669Z,24.63
2018-05-31T05:56:10.228Z,24.69
2018-05-31T05:56:50.804Z,24.77
2018-05-31T05:57:31.373Z,24.8
2018-05-31T05:58:11.935Z,24.99
2018-05-31T05:58:52.508Z,24.92
2018-05-31T05:59:33.092Z,24.91
2018-05-31T06:00:13.735Z,24.98
2018-05-31T06:00:54.316Z,25.08
2018-05-31T06:01:34.927Z,25.06
2018-05-31T06:02:15.484Z,25.25
2018-05-31T06:02:56.049Z,25.16
2018-05-31T06:03:36.692Z,25.28
2018-05-31T06:04:17.382Z,25.36
2018-05-31T06:04:57.880Z,25.4
2018-05-31T06:05:38.444Z,25.43
2018-05-31T06:06:19.028Z,25.46
2018-05-31T06:06:59.596Z,25.5
2018-05-31T06:07:40.169Z,25.58
2018-05-31T06:08:20.736Z,25.69
2018-05-31T06:09:01.309Z,25.7
2018-05-31T06:09:41.875Z,25.7
2018-05-31T06:10:22.482Z,25.75
2018-05-31T06:11:03.020Z,25.87
2018-05-31T06:11:43.596Z,25.91
2018-05-31T06:12:24.160Z,26
2018-05-31T06:13:04.732Z,25.98
2018-05-31T06:13:45.296Z,25.98
2018-05-31T06:14:25.860Z,26.09
2018-05-31T06:15:06.421Z,26.1
2018-05-31T06:15:46.983Z,26.22
2018-05-31T06:16:27.538Z,26.22
2018-05-31T06:17:08.108Z,26.23
2018-05-31T06:17:48.689Z,26.23
2018-05-31T06:18:29.291Z,26.1
2018-05-31T06:19:09.871Z,26.31
2018-05-31T06:19:50.490Z,26.23
2018-05-31T06:20:31.004Z,26.33
2018-05-31T06:21:11.570Z,26.25
2018-05-31T06:21:52.130Z,26.31
2018-05-31T06:22:32.726Z,26.26
2018-05-31T06:23:13.287Z,26.43
2018-05-31T06:23:53.854Z,26.34
2018-05-31T06:24:34.543Z,26.43
2018-05-31T06:25:15.073Z,26.45
2018-05-31T06:25:55.669Z,26.47
2018-05-31T06:26:36.285Z,26.45
2018-05-31T06:27:16.841Z,26.53
2018-05-31T06:27:57.425Z,26.51
2018-05-31T06:28:37.997Z,26.53
2018-05-31T06:29:18.845Z,26.6
2018-05-31T06:29:59.432Z,26.66
2018-05-31T06:30:40.187Z,26.59
2018-05-31T06:31:20.771Z,26.65
2018-05-31T06:32:01.343Z,26.66
2018-05-31T06:32:41.931Z,26.74
2018-05-31T06:33:22.533Z,26.78
2018-05-31T06:34:03.100Z,26.75
2018-05-31T06:34:43.792Z,26.77
2018-05-31T06:35:24.313Z,26.75
2018-05-31T06:36:04.913Z,26.81
2018-05-31T06:36:45.478Z,26.8
2018-05-31T06:37:26.058Z,26.93
2018-05-31T06:38:06.636Z,26.77
2018-05-31T06:38:47.250Z,26.8
2018-05-31T06:39:27.835Z,26.88
2018-05-31T06:40:08.486Z,26.96
2018-05-31T06:40:49.088Z,26.95
2018-05-31T06:41:29.673Z,26.95
2018-05-31T06:42:10.316Z,27.07
2018-05-31T06:42:53.125Z,27.05
2018-05-31T06:43:32.674Z,27.14
2018-05-31T06:44:13.259Z,27.12
2018-05-31T06:44:54.072Z,27.17
2018-05-31T06:45:34.676Z,27.2
2018-05-31T06:46:15.240Z,27.3
2018-05-31T06:46:55.822Z,27.32
2018-05-31T06:47:36.437Z,27.37
2018-05-31T06:48:17.019Z,27.39
2018-05-31T06:48:57.585Z,27.4
2018-05-31T06:49:38.375Z,27.51
2018-05-31T06:50:18.728Z,27.42
2018-05-31T06:50:59.427Z,27.52
2018-05-31T06:51:40.010Z,27.39
2018-05-31T06:52:20.591Z,27.47
2018-05-31T06:53:01.177Z,27.49
2018-05-31T06:53:41.792Z,27.54
2018-05-31T06:54:22.414Z,27.64
2018-05-31T06:55:02.995Z,27.67
2018-05-31T06:55:43.582Z,27.7
2018-05-31T06:56:24.182Z,27.64
2018-05-31T06:57:04.749Z,27.67
2018-05-31T06:57:45.328Z,27.74
2018-05-31T06:58:25.899Z,27.73
2018-05-31T06:59:06.458Z,27.7
2018-05-31T06:59:47.035Z,27.8
2018-05-31T07:00:27.620Z,27.89
2018-05-31T07:01:08.261Z,27.82
2018-05-31T07:01:48.851Z,27.83
2018-05-31T07:02:29.433Z,27.89
2018-05-31T07:03:10.016Z,27.85
2018-05-31T07:03:50.599Z,27.92
2018-05-31T07:04:31.869Z,27.86
2018-05-31T07:05:12.451Z,27.82
2018-05-31T07:05:53.030Z,27.85
2018-05-31T07:06:33.601Z,27.93
2018-05-31T07:07:14.185Z,28.01
2018-05-31T07:07:54.858Z,28
2018-05-31T07:08:35.468Z,28.07
2018-05-31T07:09:16.034Z,28.12
2018-05-31T07:09:56.629Z,28.22
2018-05-31T07:10:37.222Z,28.27
2018-05-31T07:11:17.831Z,28.25
2018-05-31T07:11:58.445Z,28.3
2018-05-31T07:12:39.035Z,28.23
2018-05-31T07:13:19.616Z,28.3
2018-05-31T07:14:00.208Z,28.22
2018-05-31T07:14:40.795Z,28.2
2018-05-31T07:15:21.340Z,28.25
2018-05-31T07:16:01.930Z,28.19
2018-05-31T07:16:42.517Z,28.25
2018-05-31T07:17:23.238Z,28.26
2018-05-31T07:18:03.824Z,28.27
2018-05-31T07:18:44.436Z,28.26
2018-05-31T07:19:25.112Z,28.23
2018-05-31T07:20:05.803Z,28.17
2018-05-31T07:20:46.385Z,28.27
2018-05-31T07:21:26.995Z,28.3
2018-05-31T07:22:07.552Z,28.45
2018-05-31T07:22:48.130Z,28.32
2018-05-31T07:23:28.695Z,28.41
2018-05-31T07:24:09.457Z,28.38
2018-05-31T07:24:50.320Z,28.39
2018-05-31T07:25:30.921Z,28.48
2018-05-31T07:26:11.560Z,28.47
2018-05-31T07:26:52.185Z,28.44
2018-05-31T07:27:32.746Z,28.51
2018-05-31T07:28:13.335Z,28.49
2018-05-31T07:28:53.921Z,28.51
2018-05-31T07:29:34.519Z,28.64
2018-05-31T07:30:15.075Z,28.59
2018-05-31T07:30:55.701Z,28.52
2018-05-31T07:31:36.295Z,28.56
2018-05-31T07:32:16.882Z,28.57
2018-05-31T07:32:57.453Z,28.59
2018-05-31T07:33:38.036Z,28.67
2018-05-31T07:34:18.599Z,28.62
2018-05-31T07:34:59.209Z,28.6
2018-05-31T07:35:39.832Z,28.66
2018-05-31T07:36:20.429Z,28.63
2018-05-31T07:37:00.961Z,28.57
2018-05-31T07:37:41.576Z,28.63
2018-05-31T07:38:22.151Z,28.63
2018-05-31T07:39:02.734Z,28.66
2018-05-31T07:39:43.339Z,28.69
2018-05-31T07:40:23.854Z,28.75
2018-05-31T07:41:04.441Z,28.7
2018-05-31T07:41:45.004Z,28.76
2018-05-31T07:42:25.603Z,28.78
2018-05-31T07:43:06.177Z,28.84
2018-05-31T07:43:46.752Z,28.88
2018-05-31T07:44:27.329Z,28.96
2018-05-31T07:45:07.901Z,29.02
2018-05-31T07:45:48.467Z,28.97
2018-05-31T07:46:29.038Z,29.02
2018-05-31T07:47:09.577Z,29.01
2018-05-31T07:47:50.155Z,29.01
2018-05-31T07:48:30.740Z,29.04
2018-05-31T07:49:11.309Z,28.98
2018-05-31T07:49:51.918Z,28.98
2018-05-31T07:50:32.541Z,29.04
2018-05-31T07:51:13.116Z,28.98
2018-05-31T07:51:53.632Z,28.98
2018-05-31T07:52:34.193Z,29.04
2018-05-31T07:53:14.775Z,28.98
2018-05-31T07:53:55.374Z,29.01
2018-05-31T07:54:35.946Z,29.05
2018-05-31T07:55:16.601Z,29.07
2018-05-31T07:55:57.174Z,29.16
2018-05-31T07:56:37.729Z,29.14
2018-05-31T07:57:18.314Z,29.14
2018-05-31T07:57:58.928Z,29.14
2018-05-31T07:58:39.502Z,29.16
2018-05-31T07:59:20.064Z,29.07
2018-05-31T08:00:00.626Z,29.12
2018-05-31T08:00:41.198Z,29.14
2018-05-31T08:01:21.789Z,29.14
2018-05-31T08:02:02.352Z,29.16
2018-05-31T08:02:42.957Z,29.19
2018-05-31T08:03:23.531Z,29.19
2018-05-31T08:04:04.114Z,29.13
2018-05-31T08:04:44.667Z,29.22
2018-05-31T08:05:25.232Z,29.2
2018-05-31T08:06:05.793Z,29.23
2018-05-31T08:06:46.405Z,29.23
2018-05-31T08:07:26.968Z,29.32
2018-05-31T08:08:07.586Z,29.31
2018-05-31T08:08:48.183Z,29.35
2018-05-31T08:09:28.756Z,29.38
2018-05-31T08:10:09.340Z,29.41
2018-05-31T08:10:49.946Z,29.44
2018-05-31T08:11:30.544Z,29.39
2018-05-31T08:12:11.087Z,29.35
2018-05-31T08:12:51.658Z,29.42
2018-05-31T08:13:32.278Z,29.41
2018-05-31T08:14:12.864Z,29.35
2018-05-31T08:14:53.441Z,29.49
2018-05-31T08:15:34.156Z,29.47
2018-05-31T08:16:14.720Z,29.44
2018-05-31T08:16:55.325Z,29.45
2018-05-31T08:18:48.009Z,29.42
2018-05-31T08:19:28.639Z,29.27
2018-05-31T08:20:09.322Z,29.29
2018-05-31T08:20:49.882Z,29.34
2018-05-31T08:21:30.429Z,29.22
2018-05-31T08:22:10.989Z,29.36
2018-05-31T08:22:51.570Z,29.38
2018-05-31T08:23:32.130Z,29.36
2018-05-31T08:24:12.696Z,29.19
2018-05-31T08:24:53.263Z,29.38
2018-05-31T08:25:33.851Z,29.22
2018-05-31T08:26:14.434Z,29.34
2018-05-31T08:26:55.004Z,29.41
2018-05-31T08:27:35.578Z,29.35
2018-05-31T08:28:16.440Z,29.24
2018-05-31T08:28:57.002Z,29.32
2018-05-31T08:29:37.629Z,29.31
2018-05-31T08:30:18.244Z,29.44
2018-05-31T08:30:58.815Z,29.26
2018-05-31T08:31:39.477Z,29.5
2018-05-31T08:32:20.016Z,29.44
2018-05-31T08:33:00.570Z,29.32
2018-05-31T08:33:41.145Z,29.34
2018-05-31T08:34:21.772Z,29.23
2018-05-31T08:35:02.326Z,29.31
2018-05-31T08:35:42.887Z,29.31
2018-05-31T08:36:23.436Z,29.22
2018-05-31T08:37:04.055Z,29.24
2018-05-31T08:37:44.647Z,29.31
2018-05-31T08:38:26.077Z,29.35
2018-05-31T08:39:07.164Z,29.31
2018-05-31T08:39:47.897Z,29.36
2018-05-31T08:40:28.911Z,29.38
2018-05-31T08:41:09.860Z,29.41
2018-05-31T08:41:50.703Z,29.38
2018-05-31T08:42:31.383Z,29.38
2018-05-31T08:43:11.888Z,29.32
2018-05-31T08:43:52.445Z,29.35
2018-05-31T08:44:33.034Z,29.22
2018-05-31T08:45:13.597Z,29.32
2018-05-31T08:45:54.157Z,29.2
2018-05-31T08:46:34.735Z,29.32